Terminal Aerodrome Forecast
Issued by NWS Medford, OR

Home | Current Version | Previous Version | Text Only | Print | Product List | Glossary On
Versions: 1 2 3 4 5 6 7 8 9 10 11 12 13 14 15 16 17 18 19 20 21 22 23 24
000
FTUS46 KMFR 020013 AAA
TAFMFR
TAF AMD
KMFR 020013Z 0200/0224 33003KT P6SM -SHRA BKN035 OVC050
     FM020400 VRB03KT P6SM SCT025 BKN040
     FM021200 00000KT 6SM -RA BR SCT030 OVC040
     FM021600 VRB03KT 4SM RA BR BKN015 BKN025 OVC050=

USA.gov is the U.S. government's official web portal to all federal, state and local government web resources and services.